createdAt,value
2022-10-07T00:02:22.872Z,3.28
2022-10-07T00:04:49.469Z,3.40
2022-10-07T00:07:15.998Z,3.70
2022-10-07T00:09:42.736Z,3.50
2022-10-07T00:12:09.305Z,3.72
2022-10-07T00:14:35.949Z,3.85
2022-10-07T00:17:02.673Z,3.45
2022-10-07T00:19:29.684Z,3.65
2022-10-07T00:21:56.301Z,2.90
2022-10-07T00:24:22.893Z,3.30
2022-10-07T00:26:49.519Z,3.88
2022-10-07T00:29:16.068Z,3.85
2022-10-07T00:31:43.076Z,3.38
2022-10-07T00:34:11.414Z,3.63
2022-10-07T00:36:38.194Z,4.40
2022-10-07T00:39:07.715Z,4.25
2022-10-07T00:42:06.554Z,4.15
2022-10-07T00:44:32.966Z,3.85
2022-10-07T00:47:02.916Z,3.28
2022-10-07T00:49:31.754Z,3.55
2022-10-07T00:51:58.649Z,3.67
2022-10-07T00:54:25.791Z,3.20
2022-10-07T00:56:52.892Z,3.65
2022-10-07T00:59:21.133Z,3.58
2022-10-07T01:01:47.542Z,3.28
2022-10-07T01:04:15.052Z,3.53
2022-10-07T01:06:41.906Z,3.17
2022-10-07T01:09:10.048Z,3.38
2022-10-07T01:11:47.448Z,3.75
2022-10-07T01:14:41.195Z,3.40
2022-10-07T01:17:25.214Z,3.67
2022-10-07T01:20:25.029Z,3.30
2022-10-07T01:23:08.346Z,3.53
2022-10-07T01:26:06.714Z,3.00
2022-10-07T01:28:59.376Z,2.95
2022-10-07T01:31:31.942Z,3.33
2022-10-07T01:33:59.967Z,3.55
2022-10-07T01:36:26.797Z,3.40
2022-10-07T01:39:04.316Z,3.17
2022-10-07T01:41:32.520Z,2.88
2022-10-07T01:44:00.190Z,3.85
2022-10-07T01:46:28.082Z,3.65
2022-10-07T01:48:54.743Z,3.30
2022-10-07T01:51:24.379Z,2.95
2022-10-07T01:54:12.025Z,3.17
2022-10-07T01:57:01.735Z,2.92
2022-10-07T01:59:34.092Z,3.15
2022-10-07T02:02:16.762Z,3.40
2022-10-07T02:04:58.793Z,2.92
2022-10-07T02:07:45.253Z,2.72
2022-10-07T02:10:17.384Z,3.03
2022-10-07T02:12:58.051Z,1.90
2022-10-07T02:15:36.247Z,2.78
2022-10-07T02:18:08.168Z,2.03
2022-10-07T02:20:38.517Z,2.47
2022-10-07T02:23:08.462Z,2.65
2022-10-07T02:25:44.674Z,2.42
2022-10-07T02:28:13.574Z,2.67
2022-10-07T02:30:41.863Z,2.22
2022-10-07T02:33:10.325Z,3.10
2022-10-07T02:35:45.646Z,2.42
2022-10-07T02:38:14.809Z,2.88
2022-10-07T02:40:58.402Z,2.55
2022-10-07T02:43:47.658Z,2.40
2022-10-07T02:46:22.309Z,2.17
2022-10-07T02:48:55.134Z,2.53
2022-10-07T02:51:25.458Z,2.83
2022-10-07T02:53:53.278Z,2.55
2022-10-07T02:56:23.174Z,2.50
2022-10-07T02:58:50.994Z,2.88
2022-10-07T03:01:23.284Z,2.17
2022-10-07T03:03:49.706Z,2.40
2022-10-07T03:06:18.959Z,3.17
2022-10-07T03:08:45.610Z,2.95
2022-10-07T03:11:12.202Z,2.72
2022-10-07T03:13:38.586Z,2.63
2022-10-07T03:16:05.668Z,2.65
2022-10-07T03:18:32.888Z,2.25
2022-10-07T03:20:59.935Z,3.00
2022-10-07T03:23:28.406Z,1.92
2022-10-07T03:25:58.074Z,3.00
2022-10-07T03:28:26.770Z,3.80
2022-10-07T03:30:53.703Z,2.47
2022-10-07T03:33:21.996Z,3.33
2022-10-07T03:35:48.417Z,3.20
2022-10-07T03:38:14.760Z,3.38
2022-10-07T03:40:44.358Z,2.30
2022-10-07T03:43:10.969Z,3.08
2022-10-07T03:45:43.386Z,3.10
2022-10-07T03:48:09.849Z,2.67
2022-10-07T03:50:36.326Z,3.25
2022-10-07T03:53:02.718Z,2.88
2022-10-07T03:55:29.106Z,3.20
2022-10-07T03:57:59.284Z,5.13
2022-10-07T04:00:27.178Z,3.30
2022-10-07T04:02:53.676Z,2.80
2022-10-07T04:05:21.671Z,2.38
2022-10-07T04:07:50.028Z,4.05
2022-10-07T04:10:17.872Z,4.30
2022-10-07T04:12:45.177Z,3.72
2022-10-07T04:15:11.970Z,4.25
2022-10-07T04:17:38.292Z,3.20
2022-10-07T04:20:05.024Z,4.32
2022-10-07T04:22:31.569Z,5.07
2022-10-07T04:24:57.875Z,3.20
2022-10-07T04:27:50.040Z,3.80
2022-10-07T04:30:11.598Z,4.35
2022-10-07T04:32:38.390Z,2.55
2022-10-07T04:35:05.094Z,5.05
2022-10-07T04:37:31.821Z,4.43
2022-10-07T04:40:00.955Z,5.55
2022-10-07T04:42:27.609Z,4.80
2022-10-07T04:44:53.951Z,4.53
2022-10-07T04:47:20.398Z,8.18
2022-10-07T04:49:46.969Z,4.47
2022-10-07T04:52:13.470Z,4.05
2022-10-07T04:54:39.993Z,4.68
2022-10-07T04:57:06.607Z,4.32
2022-10-07T04:59:34.416Z,4.53
2022-10-07T05:02:01.017Z,3.72
2022-10-07T05:04:27.719Z,7.05
2022-10-07T05:06:54.248Z,5.32
2022-10-07T05:09:20.978Z,4.03
2022-10-07T05:11:47.340Z,4.05
2022-10-07T05:14:13.764Z,4.38
2022-10-07T05:16:40.644Z,4.43
2022-10-07T05:19:06.986Z,3.53
2022-10-07T05:21:33.463Z,2.90
2022-10-07T05:23:59.832Z,2.92
2022-10-07T05:26:26.185Z,6.45
2022-10-07T05:28:52.618Z,8.35
2022-10-07T05:31:19.143Z,4.38
2022-10-07T05:33:45.650Z,5.15
2022-10-07T05:36:12.103Z,4.90
2022-10-07T05:38:38.741Z,4.38
2022-10-07T05:41:07.398Z,3.80
2022-10-07T05:43:36.259Z,5.40
2022-10-07T05:46:06.198Z,4.70
2022-10-07T05:48:38.773Z,4.50
2022-10-07T05:51:07.559Z,4.85
2022-10-07T05:53:34.037Z,5.07
2022-10-07T05:56:05.833Z,4.75
2022-10-07T05:58:32.150Z,4.85
2022-10-07T06:01:03.992Z,3.88
2022-10-07T06:03:31.294Z,2.72
2022-10-07T06:05:57.968Z,3.28
2022-10-07T06:08:24.394Z,3.75
2022-10-07T06:10:50.951Z,3.20
2022-10-07T06:13:17.296Z,3.00
2022-10-07T06:15:43.701Z,2.33
2022-10-07T06:18:10.279Z,4.10
2022-10-07T06:20:36.586Z,4.63
2022-10-07T06:23:03.251Z,3.97
2022-10-07T06:25:29.815Z,2.85
2022-10-07T06:27:56.738Z,3.42
2022-10-07T06:30:24.301Z,3.00
2022-10-07T06:32:50.633Z,2.58
2022-10-07T06:35:17.235Z,2.83
2022-10-07T06:37:44.215Z,4.38
2022-10-07T06:40:11.097Z,2.67
2022-10-07T06:42:37.600Z,2.80
2022-10-07T06:45:04.227Z,2.92
2022-10-07T06:47:30.651Z,1.90
2022-10-07T06:49:57.011Z,2.30
2022-10-07T06:52:23.502Z,2.83
2022-10-07T06:54:49.835Z,2.30
2022-10-07T06:57:43.760Z,1.98
2022-10-07T07:00:02.942Z,2.25
2022-10-07T07:02:29.490Z,3.55
2022-10-07T07:04:57.974Z,1.88
2022-10-07T07:07:24.953Z,3.33
2022-10-07T07:09:51.756Z,2.13
2022-10-07T07:12:18.231Z,2.25
2022-10-07T07:14:44.778Z,2.67
2022-10-07T07:17:11.889Z,2.28
2022-10-07T07:19:38.580Z,2.05
2022-10-07T07:22:05.109Z,2.83
2022-10-07T07:24:31.692Z,2.30
2022-10-07T07:26:58.116Z,1.92
2022-10-07T07:29:24.425Z,3.15
2022-10-07T07:31:50.827Z,3.03
2022-10-07T07:34:17.253Z,3.05
2022-10-07T07:36:47.148Z,2.50
2022-10-07T07:39:16.500Z,2.60
2022-10-07T07:41:45.042Z,2.50
2022-10-07T07:44:13.637Z,2.45
2022-10-07T07:46:43.486Z,2.33
2022-10-07T07:49:13.591Z,2.30
2022-10-07T07:51:41.219Z,3.03
2022-10-07T07:54:08.178Z,2.78
2022-10-07T07:56:35.303Z,2.67
2022-10-07T07:59:02.417Z,3.33
2022-10-07T08:01:29.552Z,2.65
2022-10-07T08:03:55.950Z,2.80
2022-10-07T08:06:22.478Z,2.97
2022-10-07T08:08:49.464Z,2.90
2022-10-07T08:11:18.122Z,3.42
2022-10-07T08:13:46.403Z,2.63
2022-10-07T08:16:15.964Z,3.65
2022-10-07T08:18:44.416Z,2.47
2022-10-07T08:21:10.957Z,3.03
2022-10-07T08:23:38.849Z,3.28
2022-10-07T08:26:06.565Z,2.97
2022-10-07T08:28:34.950Z,3.33
2022-10-07T08:31:06.483Z,2.38
2022-10-07T08:33:35.452Z,2.30
2022-10-07T08:36:04.417Z,1.85
2022-10-07T08:38:32.971Z,2.50
2022-10-07T08:41:12.632Z,3.03
2022-10-07T08:43:44.185Z,2.53
2022-10-07T08:46:29.192Z,3.28
2022-10-07T08:49:17.042Z,2.75
2022-10-07T08:51:50.544Z,2.85
2022-10-07T08:54:25.548Z,1.95
2022-10-07T08:56:52.613Z,2.92
2022-10-07T08:59:32.656Z,2.60
2022-10-07T09:02:24.107Z,2.47
2022-10-07T09:04:54.834Z,2.88
2022-10-07T09:07:30.054Z,2.45
2022-10-07T09:10:02.140Z,2.80
2022-10-07T09:12:36.526Z,2.30
2022-10-07T09:15:05.539Z,2.38
2022-10-07T09:17:40.018Z,2.53
2022-10-07T09:20:15.178Z,2.75
2022-10-07T09:22:49.897Z,2.47
2022-10-07T09:25:22.934Z,2.50
2022-10-07T09:27:50.113Z,2.67
2022-10-07T09:30:17.606Z,2.13
2022-10-07T09:32:46.948Z,2.40
2022-10-07T09:35:24.763Z,1.45
2022-10-07T09:38:00.680Z,2.13
2022-10-07T09:40:27.279Z,1.70
2022-10-07T09:42:55.162Z,1.92
2022-10-07T09:45:26.055Z,1.65
2022-10-07T09:47:56.731Z,1.52
2022-10-07T09:50:40.689Z,1.85
2022-10-07T09:53:27.735Z,2.70
2022-10-07T09:55:55.350Z,1.83
2022-10-07T09:58:29.562Z,1.60
2022-10-07T10:00:59.621Z,1.83
2022-10-07T10:03:36.577Z,0.90
2022-10-07T10:06:06.567Z,1.55
2022-10-07T10:08:36.321Z,2.15
2022-10-07T10:11:27.103Z,1.30
2022-10-07T10:13:54.737Z,2.17
2022-10-07T10:16:24.329Z,1.80
2022-10-07T10:18:58.733Z,1.77
2022-10-07T10:21:34.780Z,1.65
2022-10-07T10:24:14.455Z,2.25
2022-10-07T10:27:02.026Z,1.23
2022-10-07T10:30:13.330Z,1.80
2022-10-07T10:32:55.953Z,1.58
2022-10-07T10:35:27.624Z,1.33
2022-10-07T10:38:25.546Z,1.45
2022-10-07T10:41:12.548Z,1.20
2022-10-07T10:43:57.376Z,0.98
2022-10-07T10:46:23.705Z,1.00
2022-10-07T10:49:16.410Z,1.25
2022-10-07T10:51:52.823Z,1.13
2022-10-07T10:54:37.760Z,0.70
2022-10-07T10:57:08.718Z,1.20
2022-10-07T11:00:07.985Z,0.90
2022-10-07T11:02:37.128Z,1.00
2022-10-07T11:05:09.772Z,1.55
2022-10-07T11:07:42.511Z,1.77
2022-10-07T11:10:24.566Z,1.48
2022-10-07T11:12:57.254Z,1.05
2022-10-07T11:15:39.404Z,1.02
2022-10-07T11:18:12.798Z,0.90
2022-10-07T11:20:44.812Z,1.20
2022-10-07T11:23:41.560Z,4.78
2022-10-07T11:26:17.018Z,4.47
2022-10-07T11:31:19.989Z,1.55
2022-10-07T11:36:21.800Z,0.93
2022-10-07T11:38:51.532Z,1.00
2022-10-07T11:41:22.985Z,1.17
2022-10-07T11:43:53.710Z,1.02
2022-10-07T11:46:35.093Z,1.15
2022-10-07T11:49:25.314Z,1.02
2022-10-07T11:52:05.441Z,1.20
2022-10-07T11:54:49.382Z,1.00
2022-10-07T11:57:22.386Z,1.00
2022-10-07T11:59:55.932Z,1.70
2022-10-07T12:02:28.562Z,1.13
2022-10-07T12:04:56.314Z,1.45
2022-10-07T12:07:31.813Z,0.60
2022-10-07T12:12:43.406Z,0.90
2022-10-07T12:15:33.566Z,1.27
2022-10-07T12:18:06.145Z,0.80
2022-10-07T12:20:43.722Z,1.10
2022-10-07T12:23:19.216Z,0.85
2022-10-07T12:28:31.947Z,1.13
2022-10-07T12:31:00.830Z,1.23
2022-10-07T12:33:45.228Z,0.60
2022-10-07T12:36:20.744Z,1.20
2022-10-07T12:41:24.965Z,1.03
2022-10-07T12:43:57.630Z,0.98
2022-10-07T12:46:26.889Z,1.05
2022-10-07T12:49:52.632Z,1.00
2022-10-07T12:52:37.941Z,1.00
2022-10-07T12:55:09.350Z,1.70
2022-10-07T12:57:39.855Z,1.00
2022-10-07T13:00:16.375Z,1.38
2022-10-07T13:03:24.393Z,1.40
2022-10-07T13:05:53.717Z,1.05
2022-10-07T13:08:58.088Z,0.80
2022-10-07T13:11:38.515Z,0.93
2022-10-07T13:14:25.804Z,1.10
2022-10-07T13:17:15.202Z,1.20
2022-10-07T13:20:07.178Z,1.10
2022-10-07T13:22:33.866Z,1.20
2022-10-07T13:25:03.304Z,0.93
2022-10-07T13:27:32.614Z,1.30
2022-10-07T13:30:01.087Z,1.05
2022-10-07T13:32:30.833Z,0.90
2022-10-07T13:34:59.690Z,1.08
2022-10-07T13:37:37.854Z,1.20
2022-10-07T13:40:26.304Z,1.02
2022-10-07T13:43:01.251Z,0.63
2022-10-07T13:45:29.033Z,1.10
2022-10-07T13:47:56.801Z,1.17
2022-10-07T13:50:28.385Z,1.08
2022-10-07T13:52:56.386Z,1.20
2022-10-07T13:55:25.776Z,1.50
2022-10-07T13:57:54.028Z,0.82
2022-10-07T14:00:20.491Z,1.20
2022-10-07T14:02:47.445Z,1.17
2022-10-07T14:05:22.712Z,0.88
2022-10-07T14:07:53.721Z,0.80
2022-10-07T14:10:21.993Z,0.98
2022-10-07T14:12:56.635Z,0.77
2022-10-07T14:15:26.055Z,0.90
2022-10-07T14:18:05.138Z,1.13
2022-10-07T14:20:34.961Z,0.98
2022-10-07T14:23:19.822Z,0.63
2022-10-07T14:26:01.315Z,1.00
2022-10-07T14:28:31.574Z,0.93
2022-10-07T14:31:07.161Z,0.75
2022-10-07T14:33:57.124Z,0.90
2022-10-07T14:36:23.613Z,0.93
2022-10-07T14:38:51.750Z,1.10
2022-10-07T14:41:21.185Z,0.90
2022-10-07T14:43:50.044Z,0.88
2022-10-07T14:46:23.438Z,0.80
2022-10-07T14:48:51.004Z,0.73
2022-10-07T14:51:20.613Z,1.00
2022-10-07T14:53:51.478Z,0.82
2022-10-07T14:56:24.776Z,0.88
2022-10-07T14:58:51.091Z,1.08
2022-10-07T15:01:17.506Z,1.15
2022-10-07T15:03:43.920Z,1.40
2022-10-07T15:06:10.332Z,1.05
2022-10-07T15:08:36.868Z,1.17
2022-10-07T15:11:05.385Z,1.00
2022-10-07T15:13:32.157Z,11.93
2022-10-07T15:15:58.891Z,1.20
2022-10-07T15:18:25.300Z,0.73
2022-10-07T15:20:55.705Z,0.98
2022-10-07T15:23:22.215Z,0.68
2022-10-07T15:25:48.701Z,0.80
2022-10-07T15:28:15.087Z,0.77
2022-10-07T15:30:41.555Z,0.80
2022-10-07T15:33:07.890Z,1.00
2022-10-07T15:35:34.300Z,3.30
2022-10-07T15:38:00.942Z,1.25
2022-10-07T15:40:27.405Z,0.88
2022-10-07T15:42:53.817Z,2.10
2022-10-07T15:45:20.130Z,2.97
2022-10-07T15:47:46.438Z,1.15
2022-10-07T15:50:12.885Z,1.30
2022-10-07T15:52:39.467Z,0.93
2022-10-07T15:55:07.922Z,1.05
2022-10-07T15:57:35.075Z,2.80
2022-10-07T16:00:01.777Z,2.17
2022-10-07T16:02:28.261Z,1.90
2022-10-07T16:04:54.720Z,1.25
2022-10-07T16:07:21.396Z,0.93
2022-10-07T16:09:48.085Z,1.13
2022-10-07T16:12:14.515Z,1.63
2022-10-07T16:14:40.845Z,1.20
2022-10-07T16:17:07.157Z,1.40
2022-10-07T16:19:33.626Z,1.02
2022-10-07T16:21:59.966Z,1.20
2022-10-07T16:24:29.019Z,1.15
2022-10-07T16:26:57.676Z,1.40
2022-10-07T16:29:24.466Z,1.13
2022-10-07T16:31:57.993Z,1.10
2022-10-07T16:34:26.018Z,1.17
2022-10-07T16:36:52.445Z,2.00
2022-10-07T16:39:19.595Z,1.00
2022-10-07T16:41:47.107Z,2.60
2022-10-07T16:44:14.673Z,1.40
2022-10-07T16:46:41.606Z,2.08
2022-10-07T16:49:11.655Z,2.58
2022-10-07T16:51:38.102Z,1.30
2022-10-07T16:54:07.217Z,1.30
2022-10-07T16:56:35.581Z,1.50
2022-10-07T16:59:04.548Z,3.40
2022-10-07T17:01:31.422Z,1.30
2022-10-07T17:03:59.848Z,1.70
2022-10-07T17:06:28.922Z,1.40
2022-10-07T17:08:57.604Z,1.42
2022-10-07T17:11:24.582Z,1.25
2022-10-07T17:13:51.046Z,2.38
2022-10-07T17:16:17.443Z,2.00
2022-10-07T17:18:43.892Z,1.88
2022-10-07T17:21:10.568Z,2.10
2022-10-07T17:23:36.929Z,2.10
2022-10-07T17:26:06.483Z,1.80
2022-10-07T17:28:33.598Z,1.70
2022-10-07T17:31:08.001Z,2.47
2022-10-07T17:33:34.570Z,2.15
2022-10-07T17:36:06.118Z,2.17
2022-10-07T17:38:44.010Z,2.53
2022-10-07T17:41:31.745Z,2.00
2022-10-07T17:44:00.633Z,2.60
2022-10-07T17:46:29.180Z,2.60
2022-10-07T17:48:57.282Z,3.10
2022-10-07T17:51:26.374Z,2.25
2022-10-07T17:53:52.839Z,2.40
2022-10-07T17:56:19.494Z,2.03
2022-10-07T17:58:48.194Z,2.42
2022-10-07T18:01:19.932Z,2.63
2022-10-07T18:03:51.718Z,2.28
2022-10-07T18:06:18.475Z,2.15
2022-10-07T18:08:45.447Z,2.03
2022-10-07T18:11:11.822Z,2.20
2022-10-07T18:13:38.347Z,3.25
2022-10-07T18:16:05.151Z,2.08
2022-10-07T18:18:32.254Z,2.28
2022-10-07T18:21:03.880Z,1.77
2022-10-07T18:23:31.470Z,2.20
2022-10-07T18:26:02.638Z,1.75
2022-10-07T18:28:31.494Z,2.65
2022-10-07T18:30:58.034Z,2.38
2022-10-07T18:33:24.477Z,2.97
2022-10-07T18:35:59.554Z,2.63
2022-10-07T18:38:30.336Z,1.90
2022-10-07T18:41:02.045Z,2.30
2022-10-07T18:43:29.902Z,1.73
2022-10-07T18:46:04.924Z,2.28
2022-10-07T18:48:33.758Z,2.17
2022-10-07T18:51:01.239Z,1.98
2022-10-07T18:53:30.933Z,2.72
2022-10-07T18:56:05.040Z,2.25
2022-10-07T18:58:39.026Z,2.40
2022-10-07T19:01:06.821Z,2.45
2022-10-07T19:03:33.278Z,2.13
2022-10-07T19:06:06.342Z,2.33
2022-10-07T19:08:32.895Z,2.95
2022-10-07T19:11:16.951Z,3.50
2022-10-07T19:13:44.910Z,2.53
2022-10-07T19:16:11.311Z,3.33
2022-10-07T19:18:38.126Z,3.60
2022-10-07T19:21:04.523Z,2.38
2022-10-07T19:23:31.986Z,3.35
2022-10-07T19:25:59.697Z,4.18
2022-10-07T19:28:26.215Z,4.85
2022-10-07T19:30:53.968Z,8.75
2022-10-07T19:33:21.222Z,5.00
2022-10-07T19:35:54.319Z,4.15
2022-10-07T19:38:21.556Z,3.55
2022-10-07T19:40:48.245Z,3.92
2022-10-07T19:43:14.598Z,3.17
2022-10-07T19:45:42.617Z,14.88
2022-10-07T19:48:14.232Z,5.25
2022-10-07T19:50:40.996Z,4.35
2022-10-07T19:53:07.343Z,11.25
2022-10-07T19:55:34.133Z,11.02
2022-10-07T19:58:02.126Z,9.15
2022-10-07T20:00:30.398Z,11.60
2022-10-07T20:02:57.238Z,9.90
2022-10-07T20:05:28.134Z,8.27
2022-10-07T20:07:55.821Z,10.55
2022-10-07T20:10:23.016Z,9.65
2022-10-07T20:12:50.210Z,7.97
2022-10-07T20:15:17.171Z,13.35
2022-10-07T20:17:44.418Z,15.40
2022-10-07T20:20:12.198Z,27.45
2022-10-07T20:22:38.640Z,27.58
2022-10-07T20:25:05.702Z,27.33
2022-10-07T20:27:33.409Z,15.82
2022-10-07T20:30:00.003Z,9.18
2022-10-07T20:32:29.959Z,7.50
2022-10-07T20:34:56.819Z,7.70
2022-10-07T20:37:23.225Z,4.63
2022-10-07T20:39:49.923Z,4.72
2022-10-07T20:42:16.290Z,5.18
2022-10-07T20:44:42.656Z,5.13
2022-10-07T20:47:10.295Z,6.95
2022-10-07T20:49:37.696Z,5.70
2022-10-07T20:52:07.369Z,4.88
2022-10-07T20:54:34.145Z,4.05
2022-10-07T20:57:00.630Z,4.53
2022-10-07T20:59:28.907Z,3.85
2022-10-07T21:01:56.104Z,3.60
2022-10-07T21:04:23.280Z,3.50
2022-10-07T21:06:49.586Z,3.72
2022-10-07T21:09:16.033Z,3.72
2022-10-07T21:11:42.738Z,3.15
2022-10-07T21:14:10.561Z,2.78
2022-10-07T21:16:37.354Z,3.03
2022-10-07T21:19:04.222Z,3.00
2022-10-07T21:21:30.636Z,3.95
2022-10-07T21:23:57.054Z,3.85
2022-10-07T21:26:23.858Z,3.40
2022-10-07T21:28:50.285Z,3.58
2022-10-07T21:31:18.888Z,4.05
2022-10-07T21:33:47.928Z,3.78
2022-10-07T21:36:17.395Z,2.88
2022-10-07T21:38:45.830Z,2.60
2022-10-07T21:41:14.773Z,2.80
2022-10-07T21:43:41.960Z,2.88
2022-10-07T21:46:09.335Z,2.78
2022-10-07T21:48:35.844Z,2.75
2022-10-07T21:51:08.649Z,2.67
2022-10-07T21:53:36.325Z,2.42
2022-10-07T21:56:04.220Z,2.85
2022-10-07T21:58:30.806Z,2.35
2022-10-07T22:00:57.273Z,2.97
2022-10-07T22:03:23.704Z,3.00
2022-10-07T22:05:50.273Z,2.60
2022-10-07T22:08:17.923Z,2.85
2022-10-07T22:10:44.378Z,2.70
2022-10-07T22:13:10.718Z,2.70
2022-10-07T22:15:37.458Z,2.90
2022-10-07T22:18:03.890Z,2.90
2022-10-07T22:20:31.466Z,2.90
2022-10-07T22:22:59.943Z,2.58
2022-10-07T22:25:26.547Z,2.78
2022-10-07T22:27:52.952Z,2.67
2022-10-07T22:30:19.290Z,2.30
2022-10-07T22:32:45.821Z,2.80
2022-10-07T22:35:12.333Z,3.22
2022-10-07T22:37:39.021Z,3.00
2022-10-07T22:40:06.005Z,2.80
2022-10-07T22:42:32.345Z,2.30
2022-10-07T22:44:58.900Z,2.63
2022-10-07T22:47:25.195Z,2.50
2022-10-07T22:49:51.524Z,2.83
2022-10-07T22:52:18.211Z,2.72
2022-10-07T22:54:44.594Z,2.75
2022-10-07T22:57:11.234Z,2.47
2022-10-07T22:59:37.626Z,2.28
2022-10-07T23:02:04.303Z,2.80
2022-10-07T23:04:30.710Z,2.22
2022-10-07T23:06:57.392Z,2.42
2022-10-07T23:09:23.810Z,3.15
2022-10-07T23:11:50.170Z,2.60
2022-10-07T23:14:16.566Z,2.97
2022-10-07T23:16:43.214Z,2.65
2022-10-07T23:19:10.194Z,2.63
2022-10-07T23:21:37.214Z,2.63
2022-10-07T23:24:07.777Z,2.60
2022-10-07T23:26:35.800Z,2.90
2022-10-07T23:29:03.483Z,3.28
2022-10-07T23:31:31.633Z,2.63
2022-10-07T23:33:59.563Z,2.15
2022-10-07T23:36:26.722Z,2.72
2022-10-07T23:38:53.733Z,3.20
2022-10-07T23:41:22.941Z,3.05
2022-10-07T23:43:53.159Z,3.40
2022-10-07T23:46:20.812Z,2.40
2022-10-07T23:48:47.840Z,3.05
2022-10-07T23:51:17.961Z,3.38
2022-10-07T23:53:45.085Z,3.08
2022-10-07T23:56:11.662Z,2.67
2022-10-07T23:58:38.227Z,2.30
